createdAt,value
2016-11-07T00:00:17.829Z,20.31
2016-11-07T00:01:31.370Z,20.31
2016-11-07T00:02:44.883Z,20.29
2016-11-07T00:03:57.663Z,20.32
2016-11-07T00:05:10.702Z,20.28
2016-11-07T00:06:24.008Z,20.32
2016-11-07T00:07:37.625Z,20.33
2016-11-07T00:08:50.621Z,20.31
2016-11-07T00:10:04.797Z,20.32
2016-11-07T00:11:18.445Z,20.29
2016-11-07T00:13:02.000Z,20.29
2016-11-07T00:14:15.499Z,20.32
2016-11-07T00:15:29.081Z,20.29
2016-11-07T00:17:13.833Z,20.31
2016-11-07T00:18:27.310Z,20.24
2016-11-07T00:19:40.563Z,20.31
2016-11-07T00:20:53.591Z,20.31
2016-11-07T00:22:06.696Z,20.31
2016-11-07T00:23:20.067Z,20.26
2016-11-07T00:24:32.537Z,20.29
2016-11-07T00:25:46.209Z,20.31
2016-11-07T00:26:59.850Z,20.36
2016-11-07T00:28:44.042Z,20.31
2016-11-07T00:29:57.752Z,20.21
2016-11-07T00:31:11.130Z,20.33
2016-11-07T00:32:23.652Z,20.35
2016-11-07T00:33:37.247Z,20.33
2016-11-07T00:34:50.882Z,20.23
2016-11-07T00:36:03.999Z,20.31
2016-11-07T00:37:17.326Z,20.28
2016-11-07T00:38:30.918Z,20.39
2016-11-07T00:39:43.419Z,20.35
2016-11-07T00:40:56.462Z,20.36
2016-11-07T00:42:10.081Z,20.35
2016-11-07T00:43:23.695Z,20.36
2016-11-07T00:44:36.857Z,20.42
2016-11-07T00:45:49.358Z,20.42
2016-11-07T00:47:02.946Z,20.41
2016-11-07T00:48:15.489Z,20.5
2016-11-07T00:49:29.039Z,20.61
2016-11-07T00:50:42.122Z,20.67
2016-11-07T00:51:55.766Z,20.73
2016-11-07T00:53:09.318Z,20.84
2016-11-07T00:54:22.882Z,20.7
2016-11-07T00:55:36.530Z,20.73
2016-11-07T00:56:50.320Z,20.77
2016-11-07T00:58:03.780Z,20.76
2016-11-07T00:59:17.401Z,20.74
2016-11-07T01:00:30.468Z,20.8
2016-11-07T01:01:44.250Z,20.64
2016-11-07T01:02:57.315Z,20.72
2016-11-07T01:04:10.968Z,20.67
2016-11-07T01:05:24.729Z,20.73
2016-11-07T01:06:37.762Z,20.72
2016-11-07T01:07:50.805Z,20.76
2016-11-07T01:09:03.788Z,20.74
2016-11-07T01:10:16.868Z,20.8
2016-11-07T01:11:29.364Z,20.76
2016-11-07T01:12:41.863Z,20.79
2016-11-07T01:13:55.482Z,20.7
2016-11-07T01:15:08.754Z,20.77
2016-11-07T01:16:22.296Z,20.62
2016-11-07T01:17:35.892Z,20.62
2016-11-07T01:18:49.390Z,20.59
2016-11-07T01:20:02.951Z,20.55
2016-11-07T01:21:16.470Z,20.58
2016-11-07T01:22:30.060Z,20.55
2016-11-07T01:23:43.169Z,20.55
2016-11-07T01:24:56.361Z,20.54
2016-11-07T01:26:09.906Z,20.55
2016-11-07T01:27:23.413Z,20.57
2016-11-07T01:28:36.463Z,20.54
2016-11-07T01:29:50.004Z,20.5
2016-11-07T01:31:03.555Z,20.55
2016-11-07T01:32:17.258Z,20.42
2016-11-07T01:33:30.308Z,20.38
2016-11-07T01:34:43.905Z,20.39
2016-11-07T01:35:57.144Z,20.39
2016-11-07T01:37:09.953Z,20.33
2016-11-07T01:38:22.438Z,20.29
2016-11-07T01:39:35.954Z,20.33
2016-11-07T01:40:49.565Z,20.32
2016-11-07T01:42:03.201Z,20.36
2016-11-07T01:43:16.790Z,20.28
2016-11-07T01:44:29.582Z,20.21
2016-11-07T01:45:43.085Z,20.2
2016-11-07T01:46:56.643Z,20.16
2016-11-07T01:48:10.243Z,20.17
2016-11-07T01:49:23.841Z,20.08
2016-11-07T01:50:36.481Z,20.21
2016-11-07T01:51:50.416Z,20.26
2016-11-07T01:53:03.421Z,20.24
2016-11-07T01:54:17.201Z,20.26
2016-11-07T01:55:30.770Z,20.26
2016-11-07T01:56:43.899Z,20.32
2016-11-07T01:57:57.794Z,20.23
2016-11-07T01:59:11.361Z,20.23
2016-11-07T02:00:24.715Z,20.26
2016-11-07T02:01:37.256Z,20.2
2016-11-07T02:02:50.421Z,20.13
2016-11-07T02:04:03.493Z,20.14
2016-11-07T02:05:17.207Z,20.1
2016-11-07T02:06:30.808Z,20.26
2016-11-07T02:07:43.907Z,20.23
2016-11-07T02:08:57.529Z,20.23
2016-11-07T02:10:10.003Z,20.26
2016-11-07T02:11:23.166Z,20.28
2016-11-07T02:12:36.761Z,20.32
2016-11-07T02:13:50.425Z,20.32
2016-11-07T02:15:04.025Z,20.26
2016-11-07T02:16:17.295Z,20.26
2016-11-07T02:19:15.579Z,20.23
2016-11-07T02:20:29.133Z,20.26
2016-11-07T02:21:42.802Z,20.2
2016-11-07T02:22:56.407Z,20.2
2016-11-07T02:24:10.054Z,20.14
2016-11-07T02:25:23.631Z,20.17
2016-11-07T02:26:37.233Z,20.14
2016-11-07T02:27:50.344Z,20.16
2016-11-07T02:29:03.953Z,20.14
2016-11-07T02:30:17.289Z,20.13
2016-11-07T02:31:30.874Z,20.03
2016-11-07T02:32:44.413Z,20.06
2016-11-07T02:33:57.466Z,20.08
2016-11-07T02:35:10.494Z,20.02
2016-11-07T02:36:24.067Z,20.11
2016-11-07T02:37:37.645Z,20.11
2016-11-07T02:38:51.212Z,20.1
2016-11-07T02:40:04.846Z,20.06
2016-11-07T02:41:18.372Z,20.08
2016-11-07T02:42:31.707Z,20.05
2016-11-07T02:43:45.277Z,19.96
2016-11-07T02:44:58.328Z,20.08
2016-11-07T02:46:11.930Z,19.92
2016-11-07T02:47:24.968Z,20.03
2016-11-07T02:48:38.538Z,19.95
2016-11-07T02:49:52.149Z,19.92
2016-11-07T02:51:05.725Z,19.94
2016-11-07T02:52:18.738Z,19.94
2016-11-07T02:53:32.299Z,19.86
2016-11-07T02:54:45.436Z,19.8
2016-11-07T02:55:58.506Z,19.8
2016-11-07T02:57:10.941Z,19.78
2016-11-07T02:58:24.770Z,19.91
2016-11-07T02:59:37.866Z,19.76
2016-11-07T03:00:51.435Z,19.92
2016-11-07T03:02:05.055Z,19.81
2016-11-07T03:03:18.664Z,19.77
2016-11-07T03:04:32.198Z,19.68
2016-11-07T03:05:45.759Z,19.68
2016-11-07T03:06:58.902Z,19.68
2016-11-07T03:08:12.527Z,19.68
2016-11-07T03:09:26.085Z,19.61
2016-11-07T03:10:39.026Z,19.76
2016-11-07T03:11:51.032Z,19.73
2016-11-07T03:13:04.101Z,19.68
2016-11-07T03:14:17.664Z,19.74
2016-11-07T03:15:31.250Z,19.76
2016-11-07T03:16:44.851Z,19.76
2016-11-07T03:19:43.113Z,19.76
2016-11-07T03:20:56.256Z,19.74
2016-11-07T03:22:09.858Z,19.76
2016-11-07T03:23:22.966Z,19.86
2016-11-07T03:24:36.516Z,19.88
2016-11-07T03:25:50.281Z,19.78
2016-11-07T03:27:03.853Z,19.87
2016-11-07T03:28:16.904Z,19.66
2016-11-07T03:29:30.157Z,19.77
2016-11-07T03:30:43.709Z,19.68
2016-11-07T03:31:57.329Z,19.69
2016-11-07T03:33:10.977Z,19.62
2016-11-07T03:34:24.083Z,19.74
2016-11-07T03:35:37.702Z,19.68
2016-11-07T03:36:51.361Z,19.65
2016-11-07T03:38:04.940Z,19.69
2016-11-07T03:39:16.912Z,19.54
2016-11-07T03:40:29.444Z,19.68
2016-11-07T03:41:41.931Z,19.69
2016-11-07T03:42:55.253Z,19.65
2016-11-07T03:44:08.298Z,19.55
2016-11-07T03:45:21.411Z,19.59
2016-11-07T03:46:34.996Z,19.65
2016-11-07T03:47:48.019Z,19.63
2016-11-07T03:49:01.580Z,19.73
2016-11-07T03:50:14.850Z,19.65
2016-11-07T03:51:28.428Z,19.66
2016-11-07T03:52:41.504Z,19.71
2016-11-07T03:53:54.793Z,19.69
2016-11-07T03:55:07.938Z,19.76
2016-11-07T03:56:21.483Z,19.61
2016-11-07T03:57:34.838Z,19.63
2016-11-07T03:58:48.454Z,19.74
2016-11-07T04:00:01.446Z,19.68
2016-11-07T04:01:14.497Z,19.65
2016-11-07T04:02:28.048Z,19.65
2016-11-07T04:03:40.556Z,19.73
2016-11-07T04:04:53.816Z,19.69
2016-11-07T04:06:07.477Z,19.74
2016-11-07T04:07:21.045Z,19.76
2016-11-07T04:08:34.562Z,19.66
2016-11-07T04:09:48.083Z,19.71
2016-11-07T04:11:00.605Z,19.77
2016-11-07T04:12:14.151Z,19.69
2016-11-07T04:13:27.298Z,19.66
2016-11-07T04:14:40.392Z,19.62
2016-11-07T04:15:52.859Z,19.63
2016-11-07T04:17:06.472Z,19.73
2016-11-07T04:18:20.188Z,19.74
2016-11-07T04:19:33.811Z,19.73
2016-11-07T04:20:47.367Z,19.68
2016-11-07T04:22:00.988Z,19.74
2016-11-07T04:23:14.520Z,19.71
2016-11-07T04:24:27.901Z,19.68
2016-11-07T04:25:41.533Z,19.68
2016-11-07T04:26:54.945Z,19.66
2016-11-07T04:28:08.525Z,19.62
2016-11-07T04:29:22.116Z,19.68
2016-11-07T04:30:35.854Z,19.69
2016-11-07T04:31:49.019Z,19.62
2016-11-07T04:33:02.122Z,19.66
2016-11-07T04:34:14.729Z,19.66
2016-11-07T04:35:28.329Z,19.65
2016-11-07T04:36:42.032Z,19.69
2016-11-07T04:37:55.702Z,19.66
2016-11-07T04:39:09.308Z,19.62
2016-11-07T04:40:21.887Z,19.63
2016-11-07T04:41:35.043Z,19.61
2016-11-07T04:42:48.705Z,19.66
2016-11-07T04:44:01.772Z,19.65
2016-11-07T04:45:14.890Z,19.56
2016-11-07T04:46:28.010Z,19.68
2016-11-07T04:47:41.148Z,19.54
2016-11-07T04:48:54.806Z,19.58
2016-11-07T04:50:08.480Z,19.63
2016-11-07T04:51:21.962Z,19.62
2016-11-07T04:52:35.626Z,19.61
2016-11-07T04:53:49.224Z,19.5
2016-11-07T04:55:02.791Z,19.5
2016-11-07T04:56:16.170Z,19.5
2016-11-07T04:57:29.828Z,19.51
2016-11-07T04:58:43.426Z,19.55
2016-11-07T04:59:56.558Z,19.47
2016-11-07T05:01:09.641Z,19.44
2016-11-07T05:02:23.378Z,19.41
2016-11-07T05:03:36.935Z,19.48
2016-11-07T05:04:50.584Z,19.43
2016-11-07T05:06:04.152Z,19.44
2016-11-07T05:07:17.790Z,19.41
2016-11-07T05:08:30.823Z,19.37
2016-11-07T05:09:44.407Z,19.4
2016-11-07T05:10:58.031Z,19.4
2016-11-07T05:12:42.676Z,19.32
2016-11-07T05:13:55.703Z,19.44
2016-11-07T05:15:09.002Z,19.44
2016-11-07T05:16:22.708Z,19.41
2016-11-07T05:17:36.375Z,19.32
2016-11-07T05:18:49.457Z,19.43
2016-11-07T05:20:02.576Z,19.46
2016-11-07T05:21:16.172Z,19.46
2016-11-07T05:22:28.877Z,19.37
2016-11-07T05:23:42.474Z,19.44
2016-11-07T05:24:56.147Z,19.47
2016-11-07T05:26:09.724Z,19.4
2016-11-07T05:27:23.490Z,19.46
2016-11-07T05:28:37.041Z,19.41
2016-11-07T05:29:50.538Z,19.46
2016-11-07T05:31:04.095Z,19.46
2016-11-07T05:32:17.844Z,19.4
2016-11-07T05:33:30.615Z,19.44
2016-11-07T05:34:44.164Z,19.4
2016-11-07T05:35:57.785Z,19.47
2016-11-07T05:37:11.476Z,19.4
2016-11-07T05:38:25.007Z,19.41
2016-11-07T05:39:38.596Z,19.41
2016-11-07T05:40:52.214Z,19.48
2016-11-07T05:42:05.744Z,19.43
2016-11-07T05:43:19.305Z,19.41
2016-11-07T05:44:32.966Z,19.41
2016-11-07T05:45:46.604Z,19.41
2016-11-07T05:47:00.245Z,19.44
2016-11-07T05:48:13.829Z,19.44
2016-11-07T05:49:27.719Z,19.39
2016-11-07T05:50:40.798Z,19.36
2016-11-07T05:51:54.459Z,19.41
2016-11-07T05:53:08.106Z,19.4
2016-11-07T05:54:21.762Z,19.43
2016-11-07T05:55:35.417Z,19.41
2016-11-07T05:56:49.112Z,19.43
2016-11-07T05:58:01.683Z,19.43
2016-11-07T05:59:14.189Z,19.41
2016-11-07T06:00:27.065Z,19.37
2016-11-07T06:01:40.672Z,19.4
2016-11-07T06:02:53.674Z,19.33
2016-11-07T06:04:07.395Z,19.41
2016-11-07T06:05:20.522Z,19.33
2016-11-07T06:06:33.630Z,19.31
2016-11-07T06:07:46.639Z,19.31
2016-11-07T06:09:00.270Z,19.31
2016-11-07T06:10:13.941Z,19.31
2016-11-07T06:11:27.616Z,19.4
2016-11-07T06:12:41.128Z,19.44
2016-11-07T06:13:54.818Z,19.41
2016-11-07T06:15:08.399Z,19.37
2016-11-07T06:16:21.509Z,19.39
2016-11-07T06:17:35.116Z,19.48
2016-11-07T06:18:48.186Z,19.48
2016-11-07T06:20:01.784Z,19.47
2016-11-07T06:21:15.375Z,19.48
2016-11-07T06:22:28.440Z,19.55
2016-11-07T06:23:41.526Z,19.47
2016-11-07T06:24:54.894Z,19.51
2016-11-07T06:26:08.548Z,19.47
2016-11-07T06:27:21.650Z,19.48
2016-11-07T06:28:35.251Z,19.48
2016-11-07T06:29:48.853Z,19.56
2016-11-07T06:31:02.018Z,19.5
2016-11-07T06:32:15.647Z,19.63
2016-11-07T06:33:28.730Z,19.59
2016-11-07T06:34:41.891Z,19.62
2016-11-07T06:35:55.678Z,19.62
2016-11-07T06:37:09.372Z,19.59
2016-11-07T06:38:22.400Z,19.65
2016-11-07T06:39:35.462Z,19.62
2016-11-07T06:40:49.057Z,19.65
2016-11-07T06:42:02.115Z,19.65
2016-11-07T06:44:43.058Z,19.66
2016-11-07T06:45:56.159Z,19.69
2016-11-07T06:47:09.728Z,19.69
2016-11-07T06:48:23.076Z,19.71
2016-11-07T06:49:35.963Z,19.71
2016-11-07T06:50:49.585Z,19.68
2016-11-07T06:52:03.265Z,19.69
2016-11-07T06:53:16.935Z,19.68
2016-11-07T06:54:30.031Z,19.69
2016-11-07T06:55:43.712Z,19.69
2016-11-07T06:56:56.851Z,19.74
2016-11-07T06:58:10.479Z,19.63
2016-11-07T06:59:23.785Z,19.71
2016-11-07T07:00:36.369Z,19.58
2016-11-07T07:01:49.470Z,19.55
2016-11-07T07:03:02.797Z,19.68
2016-11-07T07:04:16.387Z,19.71
2016-11-07T07:05:29.956Z,19.63
2016-11-07T07:06:43.525Z,19.69
2016-11-07T07:07:56.850Z,19.69
2016-11-07T07:09:09.878Z,19.71
2016-11-07T07:10:23.120Z,19.77
2016-11-07T07:11:36.696Z,19.73
2016-11-07T07:12:50.536Z,19.66
2016-11-07T07:14:04.183Z,19.62
2016-11-07T07:15:17.490Z,19.65
2016-11-07T07:16:30.635Z,19.68
2016-11-07T07:17:43.132Z,19.66
2016-11-07T07:18:55.621Z,19.63
2016-11-07T07:20:09.239Z,19.66
2016-11-07T07:21:22.815Z,19.65
2016-11-07T07:22:35.826Z,19.68
2016-11-07T07:23:49.320Z,19.51
2016-11-07T07:25:02.946Z,19.63
2016-11-07T07:26:16.569Z,19.59
2016-11-07T07:27:30.199Z,19.61
2016-11-07T07:28:43.779Z,19.51
2016-11-07T07:29:57.366Z,19.62
2016-11-07T07:31:11.029Z,19.65
2016-11-07T07:32:24.262Z,19.62
2016-11-07T07:33:37.332Z,19.55
2016-11-07T07:34:50.970Z,19.63
2016-11-07T07:36:04.638Z,19.62
2016-11-07T07:37:17.416Z,19.63
2016-11-07T07:38:31.015Z,19.58
2016-11-07T07:39:44.727Z,19.62
2016-11-07T07:40:57.906Z,19.65
2016-11-07T07:42:11.575Z,19.62
2016-11-07T07:43:25.282Z,19.61
2016-11-07T07:44:38.386Z,19.66
2016-11-07T07:45:51.758Z,19.66
2016-11-07T07:47:05.367Z,19.61
2016-11-07T07:48:18.442Z,19.61
2016-11-07T07:49:32.030Z,19.58
2016-11-07T07:50:45.111Z,19.5
2016-11-07T07:51:58.770Z,19.61
2016-11-07T07:53:12.329Z,19.56
2016-11-07T07:54:24.850Z,19.56
2016-11-07T07:55:38.420Z,19.58
2016-11-07T07:56:51.220Z,19.55
2016-11-07T07:58:04.879Z,19.5
2016-11-07T07:59:18.587Z,19.47
2016-11-07T08:00:31.691Z,19.47
2016-11-07T08:01:45.355Z,19.46
2016-11-07T08:02:58.397Z,19.46
2016-11-07T08:04:12.032Z,19.5
2016-11-07T08:05:25.679Z,19.41
2016-11-07T08:06:37.721Z,19.48
2016-11-07T08:07:50.772Z,19.39
2016-11-07T08:09:04.413Z,19.32
2016-11-07T08:10:17.482Z,19.36
2016-11-07T08:11:29.948Z,19.33
2016-11-07T08:12:43.626Z,19.28
2016-11-07T08:13:57.352Z,19.28
2016-11-07T08:15:10.163Z,19.23
2016-11-07T08:16:23.793Z,19.26
2016-11-07T08:17:36.319Z,19.22
2016-11-07T08:18:49.923Z,19.22
2016-11-07T08:20:03.471Z,19.31
2016-11-07T08:21:16.046Z,19.21
2016-11-07T08:23:00.239Z,19.18
2016-11-07T08:24:13.855Z,19.22
2016-11-07T08:25:26.404Z,19.22
2016-11-07T08:26:39.434Z,19.16
2016-11-07T08:27:53.048Z,19.18
2016-11-07T08:29:06.640Z,19.18
2016-11-07T08:30:20.249Z,19.21
2016-11-07T08:31:33.860Z,19.16
2016-11-07T08:32:47.523Z,19.16
2016-11-07T08:34:01.158Z,19.25
2016-11-07T08:35:14.274Z,19.16
2016-11-07T08:36:27.995Z,19.19
2016-11-07T08:37:41.621Z,19.22
2016-11-07T08:38:54.690Z,19.21
2016-11-07T08:40:08.266Z,19.21
2016-11-07T08:41:21.911Z,19.31
2016-11-07T08:42:35.503Z,19.26
2016-11-07T08:43:48.649Z,19.29
2016-11-07T08:45:02.306Z,19.43
2016-11-07T08:46:15.875Z,19.44
2016-11-07T08:47:28.921Z,19.48
2016-11-07T08:48:42.573Z,19.43
2016-11-07T08:49:56.185Z,19.47
2016-11-07T08:51:09.749Z,19.4
2016-11-07T08:52:22.233Z,19.43
2016-11-07T08:53:35.875Z,19.47
2016-11-07T08:54:49.528Z,19.5
2016-11-07T08:56:02.564Z,19.51
2016-11-07T08:57:16.180Z,19.61
2016-11-07T08:58:28.716Z,19.48
2016-11-07T08:59:42.412Z,19.54
2016-11-07T09:00:56.043Z,19.54
2016-11-07T09:02:09.433Z,19.69
2016-11-07T09:03:23.077Z,19.61
2016-11-07T09:04:36.823Z,19.65
2016-11-07T09:05:50.004Z,19.66
2016-11-07T09:07:03.016Z,19.66
2016-11-07T09:08:16.679Z,19.59
2016-11-07T09:09:29.831Z,19.61
2016-11-07T09:10:42.147Z,19.61
2016-11-07T09:11:55.873Z,19.63
2016-11-07T09:13:09.514Z,19.65
2016-11-07T09:14:22.616Z,19.68
2016-11-07T09:15:36.217Z,19.68
2016-11-07T09:16:49.888Z,19.65
2016-11-07T09:18:03.511Z,19.51
2016-11-07T09:19:16.602Z,19.61
2016-11-07T09:20:30.178Z,19.61
2016-11-07T09:21:43.700Z,19.58
2016-11-07T09:22:57.393Z,19.68
2016-11-07T09:24:10.988Z,19.69
2016-11-07T09:25:24.597Z,19.69
2016-11-07T09:26:37.738Z,19.76
2016-11-07T09:27:51.277Z,19.77
2016-11-07T09:29:03.333Z,19.81
2016-11-07T09:30:16.994Z,19.78
2016-11-07T09:31:30.080Z,19.78
2016-11-07T09:32:43.638Z,19.77
2016-11-07T09:33:57.231Z,19.87
2016-11-07T09:35:10.231Z,19.88
2016-11-07T09:36:23.816Z,19.8
2016-11-07T09:37:37.418Z,19.81
2016-11-07T09:38:51.090Z,19.81
2016-11-07T09:40:04.852Z,19.78
2016-11-07T09:41:18.171Z,19.83
2016-11-07T09:42:31.291Z,19.77
2016-11-07T09:43:44.366Z,19.81
2016-11-07T09:44:57.970Z,19.84
2016-11-07T09:46:11.578Z,19.95
2016-11-07T09:47:25.136Z,19.92
2016-11-07T09:48:38.203Z,19.92
2016-11-07T09:49:51.274Z,19.92
2016-11-07T09:51:04.997Z,19.94
2016-11-07T09:52:18.760Z,19.83
2016-11-07T09:53:31.727Z,19.78
2016-11-07T09:54:44.796Z,19.87
2016-11-07T09:55:58.785Z,19.92
2016-11-07T09:57:12.344Z,19.95
2016-11-07T09:58:26.003Z,19.95
2016-11-07T09:59:39.609Z,20.1
2016-11-07T10:00:53.252Z,20.02
2016-11-07T10:02:06.367Z,20.06
2016-11-07T10:03:19.927Z,20.05
2016-11-07T10:04:33.585Z,20.06
2016-11-07T10:05:47.457Z,20.08
2016-11-07T10:07:00.994Z,20.06
2016-11-07T10:08:13.485Z,20.02
2016-11-07T10:09:26.766Z,20.06
2016-11-07T10:10:39.789Z,20.08
2016-11-07T10:11:53.630Z,20.13
2016-11-07T10:13:07.214Z,20.03
2016-11-07T10:14:19.231Z,20.11
2016-11-07T10:15:32.301Z,20.14
2016-11-07T10:16:45.442Z,20.06
2016-11-07T10:17:59.044Z,20.26
2016-11-07T10:19:12.652Z,20.28
2016-11-07T10:20:25.188Z,20.2
2016-11-07T10:21:38.879Z,20.29
2016-11-07T10:22:52.480Z,20.42
2016-11-07T10:24:06.119Z,20.42
2016-11-07T10:25:19.768Z,20.58
2016-11-07T10:26:33.338Z,20.58
2016-11-07T10:27:46.961Z,20.64
2016-11-07T10:29:00.458Z,20.74
2016-11-07T10:30:13.546Z,20.74
2016-11-07T10:31:26.801Z,20.59
2016-11-07T10:32:40.465Z,20.61
2016-11-07T10:33:54.090Z,20.72
2016-11-07T10:35:07.156Z,20.64
2016-11-07T10:36:20.207Z,20.72
2016-11-07T10:37:33.388Z,20.62
2016-11-07T10:38:46.948Z,20.72
2016-11-07T10:40:00.536Z,20.67
2016-11-07T10:41:13.691Z,20.7
2016-11-07T10:42:26.713Z,20.76
2016-11-07T10:43:40.361Z,20.74
2016-11-07T10:44:53.880Z,20.77
2016-11-07T10:46:07.540Z,20.84
2016-11-07T10:47:21.123Z,20.67
2016-11-07T10:48:34.770Z,20.84
2016-11-07T10:49:47.862Z,20.91
2016-11-07T10:51:01.568Z,20.91
2016-11-07T10:52:13.605Z,20.91
2016-11-07T10:53:26.266Z,20.87
2016-11-07T10:54:39.355Z,20.73
2016-11-07T10:55:52.145Z,20.76
2016-11-07T10:57:05.235Z,20.8
2016-11-07T10:58:18.823Z,20.8
2016-11-07T10:59:31.908Z,20.74
2016-11-07T11:00:44.420Z,20.77
2016-11-07T11:01:57.522Z,20.84
2016-11-07T11:03:11.138Z,20.74
2016-11-07T11:04:24.904Z,20.73
2016-11-07T11:05:38.520Z,20.79
2016-11-07T11:06:52.128Z,20.89
2016-11-07T11:08:06.028Z,20.88
2016-11-07T11:09:19.078Z,20.87
2016-11-07T11:10:32.667Z,20.94
2016-11-07T11:11:46.262Z,20.91
2016-11-07T11:12:59.820Z,20.98
2016-11-07T11:14:13.360Z,21.06
2016-11-07T11:15:26.946Z,21.01
2016-11-07T11:16:39.518Z,21.04
2016-11-07T11:17:53.176Z,21.1
2016-11-07T11:19:05.702Z,21.14
2016-11-07T11:20:19.262Z,21.14
2016-11-07T11:21:32.931Z,21.12
2016-11-07T11:22:46.611Z,21.19
2016-11-07T11:23:59.130Z,21.22
2016-11-07T11:25:12.756Z,21.22
2016-11-07T11:26:26.142Z,21.32
2016-11-07T11:27:38.639Z,21.4
2016-11-07T11:28:52.268Z,21.38
2016-11-07T11:30:05.850Z,21.46
2016-11-07T11:31:18.434Z,21.29
2016-11-07T11:32:32.039Z,21.43
2016-11-07T11:33:44.570Z,21.34
2016-11-07T11:34:58.120Z,21.38
2016-11-07T11:36:11.207Z,21.43
2016-11-07T11:37:25.025Z,21.43
2016-11-07T11:38:38.648Z,21.54
2016-11-07T11:39:52.219Z,21.54
2016-11-07T11:41:04.772Z,21.49
2016-11-07T11:42:49.489Z,21.54
2016-11-07T11:44:02.506Z,21.59
2016-11-07T11:45:16.222Z,21.67
2016-11-07T11:46:29.864Z,21.72
2016-11-07T11:47:42.985Z,21.84
2016-11-07T11:48:56.734Z,21.86
2016-11-07T11:50:10.360Z,21.94
2016-11-07T11:51:23.942Z,21.9
2016-11-07T11:52:37.581Z,21.88
2016-11-07T11:53:50.931Z,21.91
2016-11-07T11:55:04.266Z,22.02
2016-11-07T11:56:17.896Z,22.1
2016-11-07T11:57:30.926Z,22.17
2016-11-07T11:58:44.536Z,22.25
2016-11-07T11:59:57.594Z,22.24
2016-11-07T12:01:11.261Z,22.31
2016-11-07T12:02:25.001Z,22.37
2016-11-07T12:03:38.118Z,22.21
2016-11-07T12:04:51.756Z,22.36
2016-11-07T12:06:05.410Z,22.3
2016-11-07T12:07:19.022Z,22.3
2016-11-07T12:08:32.057Z,22.43
2016-11-07T12:09:45.637Z,22.45
2016-11-07T12:10:59.223Z,22.51
2016-11-07T12:12:43.931Z,22.46
2016-11-07T12:13:57.002Z,22.57
2016-11-07T12:15:10.692Z,22.47
2016-11-07T12:16:23.841Z,22.55
2016-11-07T12:17:37.471Z,22.46
2016-11-07T12:18:50.631Z,22.49
2016-11-07T12:20:04.239Z,22.58
2016-11-07T12:21:17.877Z,22.51
2016-11-07T12:22:31.446Z,22.46
2016-11-07T12:23:45.082Z,22.6
2016-11-07T12:24:58.186Z,22.64
2016-11-07T12:26:11.265Z,22.55
2016-11-07T12:27:24.541Z,22.62
2016-11-07T12:28:38.198Z,22.58
2016-11-07T12:29:51.324Z,22.76
2016-11-07T12:31:04.931Z,22.82
2016-11-07T12:32:18.017Z,22.98
2016-11-07T12:34:02.741Z,23.01
2016-11-07T12:35:16.458Z,23.1
2016-11-07T12:36:30.105Z,23.23
2016-11-07T12:37:43.173Z,23.31
2016-11-07T12:38:56.295Z,23.31
2016-11-07T12:40:09.885Z,23.17
2016-11-07T12:41:23.756Z,23.35
2016-11-07T12:42:37.394Z,23.57
2016-11-07T12:43:50.769Z,23.6
2016-11-07T12:45:04.366Z,23.66
2016-11-07T12:46:17.518Z,23.76
2016-11-07T12:47:30.584Z,23.78
2016-11-07T12:48:44.185Z,23.91
2016-11-07T12:49:58.023Z,24.09
2016-11-07T12:51:11.073Z,24.31
2016-11-07T12:52:24.404Z,24.43
2016-11-07T12:53:38.023Z,24.62
2016-11-07T12:54:51.181Z,24.76
2016-11-07T12:56:04.254Z,24.87
2016-11-07T12:57:17.832Z,25
2016-11-07T12:58:31.423Z,25.09
2016-11-07T12:59:44.461Z,25.06
2016-11-07T13:00:58.136Z,25.32
2016-11-07T13:02:11.506Z,25.47
2016-11-07T13:03:24.575Z,25.61
2016-11-07T13:04:38.152Z,25.91
2016-11-07T13:05:51.527Z,26.05
2016-11-07T13:07:05.186Z,26.06
2016-11-07T13:08:18.884Z,26.02
2016-11-07T13:09:32.405Z,26.28
2016-11-07T13:10:45.993Z,26.45
2016-11-07T13:11:59.562Z,26.69
2016-11-07T13:13:13.182Z,26.73
2016-11-07T13:14:26.877Z,26.69
2016-11-07T13:15:39.999Z,26.82
2016-11-07T13:16:53.785Z,26.89
2016-11-07T13:18:06.907Z,26.99
2016-11-07T13:19:20.684Z,27.17
2016-11-07T13:20:34.311Z,27.27
2016-11-07T13:21:47.579Z,27.41
2016-11-07T13:23:01.216Z,27.46
2016-11-07T13:24:13.738Z,27.74
2016-11-07T13:25:27.444Z,27.78
2016-11-07T13:26:41.063Z,27.81
2016-11-07T13:27:54.405Z,27.9
2016-11-07T13:29:07.494Z,27.9
2016-11-07T13:30:20.731Z,27.84
2016-11-07T13:31:34.095Z,27.6
2016-11-07T13:32:47.672Z,27.87
2016-11-07T13:34:01.207Z,27.94
2016-11-07T13:35:14.834Z,28.06
2016-11-07T13:36:28.403Z,28.15
2016-11-07T13:37:42.018Z,28.12
2016-11-07T13:38:55.713Z,28.31
2016-11-07T13:40:08.779Z,28.58
2016-11-07T13:41:22.403Z,28.71
2016-11-07T13:42:36.005Z,28.9
2016-11-07T13:43:49.689Z,29.27
2016-11-07T13:45:03.319Z,29.36
2016-11-07T13:46:16.989Z,29.34
2016-11-07T13:47:30.580Z,29.42
2016-11-07T13:48:43.665Z,29.58
2016-11-07T13:49:56.343Z,29.76
2016-11-07T13:51:09.461Z,29.97
2016-11-07T13:52:23.071Z,30.27
2016-11-07T13:53:36.634Z,30.43
2016-11-07T13:54:50.250Z,30.47
2016-11-07T13:56:03.819Z,30.38
2016-11-07T13:57:16.871Z,30.38
2016-11-07T13:58:30.471Z,30.37
2016-11-07T13:59:44.043Z,29.94
2016-11-07T14:00:57.383Z,29.92
2016-11-07T14:02:10.745Z,30.01
2016-11-07T14:03:24.415Z,30.1
2016-11-07T14:04:37.583Z,30.31
2016-11-07T14:05:50.682Z,30.69
2016-11-07T14:07:04.241Z,30.95
2016-11-07T14:08:16.013Z,31.09
2016-11-07T14:09:29.641Z,31.32
2016-11-07T14:10:42.710Z,31.41
2016-11-07T14:11:56.331Z,31.51
2016-11-07T14:13:09.573Z,31.8
2016-11-07T14:14:23.207Z,32.14
2016-11-07T14:15:36.852Z,32.52
2016-11-07T14:16:50.696Z,32.75
2016-11-07T14:18:04.257Z,33.18
2016-11-07T14:19:17.958Z,33.56
2016-11-07T14:20:31.627Z,33.44
2016-11-07T14:21:45.148Z,33.21
2016-11-07T14:22:58.777Z,32.77
2016-11-07T14:24:12.375Z,32.87
2016-11-07T14:25:25.553Z,32.72
2016-11-07T14:26:38.673Z,32.57
2016-11-07T14:27:51.769Z,32.14
2016-11-07T14:29:05.164Z,31.84
2016-11-07T14:30:18.814Z,32.19
2016-11-07T14:31:32.384Z,32.45
2016-11-07T14:32:45.980Z,32.87
2016-11-07T14:33:59.043Z,33
2016-11-07T14:35:11.572Z,32.74
2016-11-07T14:36:24.658Z,33.14
2016-11-07T14:37:37.755Z,33.82
2016-11-07T14:38:50.787Z,34.27
2016-11-07T14:40:03.865Z,34.7
2016-11-07T14:41:16.963Z,35.15
2016-11-07T14:42:30.017Z,35.47
2016-11-07T14:43:43.621Z,35.68
2016-11-07T14:44:56.537Z,35.96
2016-11-07T14:46:10.151Z,35.8
2016-11-07T14:47:23.932Z,35.65
2016-11-07T14:48:37.006Z,35.4
2016-11-07T14:49:50.774Z,35.92
2016-11-07T14:51:04.410Z,35.99
2016-11-07T14:52:17.008Z,36.27
2016-11-07T14:53:30.732Z,36.75
2016-11-07T14:54:43.765Z,37.1
2016-11-07T14:55:56.112Z,37.4
2016-11-07T14:57:09.976Z,37.44
2016-11-07T14:58:23.393Z,37.29
2016-11-07T14:59:36.216Z,36.93
2016-11-07T15:00:49.320Z,36.88
2016-11-07T15:02:02.940Z,37.18
2016-11-07T15:03:16.560Z,37.29
2016-11-07T15:04:30.239Z,36.99
2016-11-07T15:05:43.569Z,36.31
2016-11-07T15:06:56.665Z,35.94
2016-11-07T15:08:10.301Z,35.14
2016-11-07T15:10:37.805Z,34.69
2016-11-07T15:11:51.455Z,34.89
2016-11-07T15:13:05.130Z,34.99
2016-11-07T15:14:18.342Z,34.99
2016-11-07T15:15:31.991Z,35.29
2016-11-07T15:16:45.575Z,35.77
2016-11-07T15:17:59.231Z,35.25
2016-11-07T15:19:12.777Z,36
2016-11-07T15:20:26.367Z,36.41
2016-11-07T15:21:39.972Z,36.6
2016-11-07T15:22:53.866Z,36.54
2016-11-07T15:24:07.515Z,36.98
2016-11-07T15:25:20.892Z,37.57
2016-11-07T15:26:34.556Z,37.81
2016-11-07T15:27:47.750Z,38.37
2016-11-07T15:29:00.851Z,38.34
2016-11-07T15:30:14.531Z,38.61
2016-11-07T15:31:28.206Z,38.32
2016-11-07T15:32:40.836Z,38.2
2016-11-07T15:33:54.512Z,38.35
2016-11-07T15:35:07.922Z,38.54
2016-11-07T15:36:21.534Z,38.72
2016-11-07T15:37:34.853Z,38.99
2016-11-07T15:38:48.547Z,39.06
2016-11-07T15:40:02.165Z,39.67
2016-11-07T15:41:16.211Z,39.85
2016-11-07T15:42:29.815Z,39.85
2016-11-07T15:43:42.334Z,40.31
2016-11-07T15:45:26.556Z,40.65
2016-11-07T15:46:40.221Z,41.13
2016-11-07T15:47:53.963Z,41.58
2016-11-07T15:49:07.080Z,41.84
2016-11-07T15:50:20.849Z,41.99
2016-11-07T15:51:33.932Z,42.02
2016-11-07T15:52:47.035Z,40.79
2016-11-07T15:54:00.712Z,41.13
2016-11-07T15:55:14.358Z,41.62
2016-11-07T15:56:27.465Z,41.83
2016-11-07T15:57:41.100Z,41.94